Time;durP1;ratioP1;P1;durP2;ratioP2;P2;SDS_P1;SDS_P2;PMS_P1;PMS_P2;Temp;Humidity;BMP_temperature;BMP_pressure;BME280_temperature;BME280_humidity;BME280_pressure;Samples;Min_cycle;Max_cycle;Signal;HPM_P1;HPM_P2
2021/08/16 00:02:22;;;;;;;14.83;6.90;;;;;;;;;;4938110;28;20033;-85
2021/08/16 00:04:48;;;;;;;9.30;4.60;;;;;;;;;;4940419;28;20105;-85
2021/08/16 00:07:13;;;;;;;17.57;5.10;;;;;;;;;;4955946;28;20042;-85
2021/08/16 00:09:38;;;;;;;13.90;6.27;;;;;;;;;;4940076;28;20027;-86
2021/08/16 00:12:05;;;;;;;20.67;5.10;;;;;;;;;;4955835;28;20022;-86
2021/08/16 00:14:30;;;;;;;19.48;4.90;;;;;;;;;;4972010;28;20102;-85
2021/08/16 00:16:56;;;;;;;12.23;4.97;;;;;;;;;;4955328;28;20133;-86
2021/08/16 00:19:21;;;;;;;18.10;7.63;;;;;;;;;;4939916;28;20023;-86
2021/08/16 00:21:47;;;;;;;16.73;7.17;;;;;;;;;;4955994;28;20502;-87
2021/08/16 00:24:12;;;;;;;21.90;9.20;;;;;;;;;;4955711;28;20113;-87
2021/08/16 00:26:37;;;;;;;17.63;8.17;;;;;;;;;;4955704;28;20129;-87
2021/08/16 00:29:03;;;;;;;15.37;7.30;;;;;;;;;;4937057;29;20030;-87
2021/08/16 00:31:28;;;;;;;19.90;5.53;;;;;;;;;;4934586;28;20041;-87
2021/08/16 00:33:54;;;;;;;16.30;6.10;;;;;;;;;;4955774;28;20026;-87
2021/08/16 00:36:19;;;;;;;16.00;7.00;;;;;;;;;;4939769;28;20058;-87
2021/08/16 00:38:45;;;;;;;22.43;10.03;;;;;;;;;;4939631;28;20093;-87
2021/08/16 00:41:11;;;;;;;15.07;7.30;;;;;;;;;;4955562;28;20023;-86
2021/08/16 00:43:37;;;;;;;18.70;5.78;;;;;;;;;;4937401;29;20029;-87
2021/08/16 00:46:02;;;;;;;13.97;6.23;;;;;;;;;;4936388;29;20114;-86
2021/08/16 00:48:27;;;;;;;17.53;6.27;;;;;;;;;;4920312;29;20038;-87
2021/08/16 00:50:53;;;;;;;14.27;5.90;;;;;;;;;;4936248;29;20401;-86
2021/08/16 00:53:18;;;;;;;14.93;4.67;;;;;;;;;;4936053;29;20042;-87
2021/08/16 00:55:43;;;;;;;11.20;4.70;;;;;;;;;;4928418;28;20027;-87
2021/08/16 00:58:10;;;;;;;12.17;5.03;;;;;;;;;;4943307;29;20129;-86
2021/08/16 01:00:35;;;;;;;19.75;4.88;;;;;;;;;;4936357;29;20023;-85
2021/08/16 01:03:00;;;;;;;11.97;4.93;;;;;;;;;;4920111;29;20461;-87
2021/08/16 01:05:26;;;;;;;12.13;4.93;;;;;;;;;;4936191;29;20037;-87
2021/08/16 01:07:51;;;;;;;11.57;4.67;;;;;;;;;;4952173;29;20027;-86
2021/08/16 01:10:18;;;;;;;12.93;5.27;;;;;;;;;;4948475;28;20026;-87
2021/08/16 01:12:43;;;;;;;11.63;5.03;;;;;;;;;;4955270;28;20034;-87
2021/08/16 01:15:11;;;;;;;14.80;4.20;;;;;;;;;;4955016;28;20054;-87
2021/08/16 01:17:36;;;;;;;9.32;4.22;;;;;;;;;;4955288;28;20033;-87
2021/08/16 01:20:04;;;;;;;14.20;5.00;;;;;;;;;;4954924;28;20026;-87
2021/08/16 01:22:29;;;;;;;12.95;5.20;;;;;;;;;;4938911;28;20081;-87
2021/08/16 01:24:55;;;;;;;14.33;5.20;;;;;;;;;;4955174;28;20022;-87
2021/08/16 01:27:20;;;;;;;12.30;4.60;;;;;;;;;;4926194;29;20122;-85
2021/08/16 01:29:45;;;;;;;9.67;5.23;;;;;;;;;;4952009;29;20031;-87
2021/08/16 01:32:11;;;;;;;13.10;4.70;;;;;;;;;;4935749;29;20020;-87
2021/08/16 01:34:36;;;;;;;11.57;4.57;;;;;;;;;;4935935;29;20023;-87
2021/08/16 01:37:02;;;;;;;12.57;4.37;;;;;;;;;;4935901;29;20126;-88
2021/08/16 01:39:28;;;;;;;10.33;4.63;;;;;;;;;;4939062;28;20019;-86
2021/08/16 01:41:53;;;;;;;11.00;4.53;;;;;;;;;;4954951;28;20162;-87
2021/08/16 01:44:20;;;;;;;12.55;4.47;;;;;;;;;;4955351;28;20541;-87
2021/08/16 01:46:55;;;;;;;11.95;5.47;;;;;;;;;;4954793;28;20034;-87
2021/08/16 01:49:20;;;;;;;11.48;5.43;;;;;;;;;;4939238;28;20031;-87
2021/08/16 01:51:49;;;;;;;12.80;5.70;;;;;;;;;;4939029;28;20385;-87
2021/08/16 01:54:15;;;;;;;16.67;5.70;;;;;;;;;;4955447;28;20150;-86
2021/08/16 01:56:40;;;;;;;14.33;5.80;;;;;;;;;;4970739;28;20519;-87
2021/08/16 01:59:06;;;;;;;16.67;6.40;;;;;;;;;;4954905;28;20367;-87
2021/08/16 02:01:31;;;;;;;15.83;6.40;;;;;;;;;;4954526;28;20023;-87
2021/08/16 02:03:56;;;;;;;15.47;5.53;;;;;;;;;;4955992;28;20027;-87
2021/08/16 02:06:22;;;;;;;16.10;5.97;;;;;;;;;;4973942;28;20023;-87
2021/08/16 02:08:47;;;;;;;11.47;6.00;;;;;;;;;;4958398;28;20421;-87
2021/08/16 02:11:13;;;;;;;13.70;5.93;;;;;;;;;;4957826;28;20118;-87
2021/08/16 02:13:38;;;;;;;13.87;6.27;;;;;;;;;;4958489;28;20037;-87
2021/08/16 02:16:04;;;;;;;18.30;7.43;;;;;;;;;;4941965;28;20033;-87
2021/08/16 02:18:30;;;;;;;16.92;6.90;;;;;;;;;;4941876;28;20058;-87
2021/08/16 02:20:55;;;;;;;23.53;8.43;;;;;;;;;;4957673;28;20037;-87
2021/08/16 02:23:20;;;;;;;20.37;8.13;;;;;;;;;;4957967;28;20023;-86
2021/08/16 02:25:46;;;;;;;14.33;6.97;;;;;;;;;;4957977;28;20026;-87
2021/08/16 02:28:16;;;;;;;17.43;7.00;;;;;;;;;;4957635;28;20434;-87
2021/08/16 02:30:41;;;;;;;14.32;7.20;;;;;;;;;;4958327;28;20023;-86
2021/08/16 02:33:06;;;;;;;19.03;8.20;;;;;;;;;;4941709;28;20023;-87
2021/08/16 02:35:32;;;;;;;32.73;12.43;;;;;;;;;;4957573;28;20125;-87
2021/08/16 02:37:57;;;;;;;38.73;15.70;;;;;;;;;;4957606;28;20101;-87
2021/08/16 02:40:22;;;;;;;56.67;18.03;;;;;;;;;;4957613;28;20565;-88
2021/08/16 02:42:48;;;;;;;44.60;16.17;;;;;;;;;;4941592;28;20161;-87
2021/08/16 02:45:13;;;;;;;40.60;14.97;;;;;;;;;;4973859;28;20114;-85
2021/08/16 02:47:39;;;;;;;26.13;11.73;;;;;;;;;;4941528;28;20478;-87
2021/08/16 02:50:04;;;;;;;33.53;12.43;;;;;;;;;;4970932;28;20041;-87
2021/08/16 02:52:30;;;;;;;28.10;10.10;;;;;;;;;;4957395;28;20098;-87
2021/08/16 02:54:56;;;;;;;25.27;10.30;;;;;;;;;;4957353;28;20018;-87
2021/08/16 02:57:21;;;;;;;23.08;10.40;;;;;;;;;;4957543;28;20026;-86
2021/08/16 02:59:47;;;;;;;20.17;9.33;;;;;;;;;;4957174;28;20030;-87
2021/08/16 03:02:12;;;;;;;28.30;11.40;;;;;;;;;;4957175;28;20390;-87
2021/08/16 03:04:38;;;;;;;35.50;15.07;;;;;;;;;;4957228;28;20050;-87
2021/08/16 03:07:03;;;;;;;36.37;13.50;;;;;;;;;;4957041;28;20073;-87
2021/08/16 03:09:29;;;;;;;24.97;10.13;;;;;;;;;;4957005;28;20474;-87
2021/08/16 03:11:55;;;;;;;15.53;7.97;;;;;;;;;;4956920;28;20019;-86
2021/08/16 03:14:20;;;;;;;23.20;10.00;;;;;;;;;;4972951;28;20371;-85
2021/08/16 03:16:46;;;;;;;20.83;9.33;;;;;;;;;;4956726;28;20026;-86
2021/08/16 03:19:11;;;;;;;20.47;8.73;;;;;;;;;;4941146;28;20397;-87
2021/08/16 03:21:36;;;;;;;16.40;6.67;;;;;;;;;;4956532;28;20023;-86
2021/08/16 03:24:02;;;;;;;15.47;7.63;;;;;;;;;;4940970;28;20545;-87
2021/08/16 03:26:27;;;;;;;16.97;8.03;;;;;;;;;;4940758;28;20026;-87
2021/08/16 03:28:53;;;;;;;19.77;9.03;;;;;;;;;;4956619;28;20022;-85
2021/08/16 03:31:18;;;;;;;17.23;8.93;;;;;;;;;;4940477;28;20019;-87
2021/08/16 03:33:43;;;;;;;15.90;7.90;;;;;;;;;;4972914;28;20508;-88
2021/08/16 03:36:09;;;;;;;23.70;9.20;;;;;;;;;;4940576;28;20025;-87
2021/08/16 03:38:36;;;;;;;22.10;8.97;;;;;;;;;;4966460;28;20031;-88
2021/08/16 03:41:01;;;;;;;19.00;7.75;;;;;;;;;;4937394;29;20462;-86
2021/08/16 03:43:26;;;;;;;15.43;6.87;;;;;;;;;;4937205;29;20031;-87
2021/08/16 03:45:52;;;;;;;28.83;10.80;;;;;;;;;;4937219;29;20038;-86
2021/08/16 03:48:18;;;;;;;18.47;9.40;;;;;;;;;;4940157;29;20054;-88
2021/08/16 03:50:43;;;;;;;29.02;10.93;;;;;;;;;;4952496;29;20540;-85
2021/08/16 03:53:09;;;;;;;27.03;11.10;;;;;;;;;;4949828;29;20122;-88
2021/08/16 03:55:34;;;;;;;37.83;14.30;;;;;;;;;;4936982;29;20585;-87
2021/08/16 03:58:00;;;;;;;40.10;15.23;;;;;;;;;;4969315;28;20040;-88
2021/08/16 04:00:25;;;;;;;36.97;14.73;;;;;;;;;;4944859;28;20038;-88
2021/08/16 04:02:50;;;;;;;39.67;15.93;;;;;;;;;;4965263;28;20030;-86
2021/08/16 04:05:16;;;;;;;34.27;15.43;;;;;;;;;;4939891;28;20034;-87
2021/08/16 04:07:42;;;;;;;32.77;14.10;;;;;;;;;;4955930;28;20046;-88
2021/08/16 04:10:08;;;;;;;37.15;15.68;;;;;;;;;;4956200;28;20500;-89
2021/08/16 04:12:34;;;;;;;34.42;15.80;;;;;;;;;;4939977;28;20058;-89
2021/08/16 04:14:59;;;;;;;39.13;15.67;;;;;;;;;;4953659;28;20030;-89
2021/08/16 04:17:24;;;;;;;41.67;16.50;;;;;;;;;;4936522;29;20033;-89
2021/08/16 04:19:50;;;;;;;40.60;16.80;;;;;;;;;;4952682;29;20098;-90
2021/08/16 04:22:15;;;;;;;34.97;15.27;;;;;;;;;;4936851;29;20114;-89
2021/08/16 04:24:41;;;;;;;33.90;14.73;;;;;;;;;;4952856;28;20497;-90
2021/08/16 04:27:06;;;;;;;28.67;13.67;;;;;;;;;;4938054;29;20034;-90
2021/08/16 04:29:31;;;;;;;26.43;12.63;;;;;;;;;;4952407;29;20517;-89
2021/08/16 04:31:57;;;;;;;26.30;11.23;;;;;;;;;;4939326;28;20106;-88
2021/08/16 04:34:23;;;;;;;26.53;12.30;;;;;;;;;;4955996;28;20077;-89
2021/08/16 04:37:06;;;;;;;25.75;12.05;;;;;;;;;;4954701;28;20031;-89
2021/08/16 04:39:55;;;;;;;28.15;12.48;;;;;;;;;;4940858;28;20565;-93
2021/08/16 04:42:21;;;;;;;26.58;12.32;;;;;;;;;;4956109;28;20039;-93
2021/08/16 04:44:52;;;;;;;25.53;12.57;;;;;;;;;;4939815;28;20033;-89
2021/08/16 04:47:17;;;;;;;27.60;12.90;;;;;;;;;;4940116;28;20062;-90
2021/08/16 04:49:43;;;;;;;21.10;10.40;;;;;;;;;;4939866;28;20037;-89
2021/08/16 04:52:08;;;;;;;20.80;10.50;;;;;;;;;;4955393;28;20106;-87
2021/08/16 04:54:33;;;;;;;23.53;10.90;;;;;;;;;;4953927;28;20069;-88
2021/08/16 04:56:59;;;;;;;20.73;9.67;;;;;;;;;;4952304;28;20031;-87
2021/08/16 04:59:24;;;;;;;16.67;9.30;;;;;;;;;;4936123;29;20023;-86
2021/08/16 05:01:50;;;;;;;18.83;9.57;;;;;;;;;;4954770;28;20027;-86
2021/08/16 05:04:15;;;;;;;26.15;11.55;;;;;;;;;;4955470;28;20084;-87
2021/08/16 05:06:42;;;;;;;27.77;12.93;;;;;;;;;;4955273;28;20039;-90
2021/08/16 05:09:08;;;;;;;23.70;12.23;;;;;;;;;;4955868;28;20099;-87
2021/08/16 05:11:33;;;;;;;23.43;12.67;;;;;;;;;;4954907;28;20047;-87
2021/08/16 05:13:59;;;;;;;26.23;14.50;;;;;;;;;;4955254;28;20035;-88
2021/08/16 05:16:25;;;;;;;33.50;14.20;;;;;;;;;;4951673;29;20117;-88
2021/08/16 05:18:50;;;;;;;38.20;14.23;;;;;;;;;;4951884;28;20085;-88
2021/08/16 05:21:16;;;;;;;32.03;15.40;;;;;;;;;;4952051;29;20027;-87
2021/08/16 05:23:42;;;;;;;28.77;14.98;;;;;;;;;;4952885;29;20110;-88
2021/08/16 05:26:07;;;;;;;33.77;16.27;;;;;;;;;;4936323;29;20122;-89
2021/08/16 05:28:36;;;;;;;38.13;17.23;;;;;;;;;;4935942;28;20042;-89
2021/08/16 05:31:02;;;;;;;34.97;16.40;;;;;;;;;;4926610;29;20091;-91
2021/08/16 05:33:27;;;;;;;30.27;17.27;;;;;;;;;;4952128;28;20478;-90
2021/08/16 05:35:52;;;;;;;33.60;16.80;;;;;;;;;;4939800;28;20031;-90
2021/08/16 05:38:18;;;;;;;35.83;18.27;;;;;;;;;;4936596;29;20023;-88
2021/08/16 05:40:43;;;;;;;35.67;17.77;;;;;;;;;;4942956;28;20035;-88
2021/08/16 05:43:09;;;;;;;32.40;18.07;;;;;;;;;;4943072;28;20023;-89
2021/08/16 05:45:37;;;;;;;27.67;15.50;;;;;;;;;;4943335;28;20034;-91
2021/08/16 05:48:17;;;;;;;25.77;14.75;;;;;;;;;;4940683;29;20027;-94
2021/08/16 05:50:43;;;;;;;28.38;14.57;;;;;;;;;;4960101;28;20015;-87
2021/08/16 05:53:08;;;;;;;25.00;14.90;;;;;;;;;;4940007;29;20391;-91
2021/08/16 05:55:34;;;;;;;26.10;14.03;;;;;;;;;;4955787;29;20416;-93
2021/08/16 05:57:59;;;;;;;26.70;13.57;;;;;;;;;;4956167;29;20510;-87
2021/08/16 06:00:38;;;;;;;20.77;12.67;;;;;;;;;;4954560;29;20110;-88
2021/08/16 06:03:04;;;;;;;21.10;11.90;;;;;;;;;;4942193;28;20043;-90
2021/08/16 06:05:29;;;;;;;18.03;10.70;;;;;;;;;;4940714;29;20085;-92
2021/08/16 06:07:54;;;;;;;20.27;11.13;;;;;;;;;;4941900;29;20402;-86
2021/08/16 06:10:20;;;;;;;16.60;9.90;;;;;;;;;;4939334;29;20119;-93
2021/08/16 06:12:46;;;;;;;17.63;10.02;;;;;;;;;;4940637;28;20046;-93
2021/08/16 06:15:12;;;;;;;16.77;9.10;;;;;;;;;;4929100;29;20035;-90
2021/08/16 06:17:40;;;;;;;17.30;9.20;;;;;;;;;;4941351;29;20035;-91
2021/08/16 06:20:15;;;;;;;14.43;7.95;;;;;;;;;;4939644;29;20031;-91
2021/08/16 06:22:40;;;;;;;14.73;8.07;;;;;;;;;;4954780;29;20114;-89
2021/08/16 06:25:20;;;;;;;13.52;8.13;;;;;;;;;;4938884;29;20030;-90
2021/08/16 06:27:45;;;;;;;13.52;8.23;;;;;;;;;;4957514;28;20027;-89
2021/08/16 06:30:11;;;;;;;12.25;6.80;;;;;;;;;;4941833;28;20033;-90
2021/08/16 06:32:40;;;;;;;15.57;7.20;;;;;;;;;;4941801;28;20039;-90
2021/08/16 06:35:07;;;;;;;14.90;7.30;;;;;;;;;;4957453;28;20113;-89
2021/08/16 06:37:32;;;;;;;10.20;6.15;;;;;;;;;;4957817;28;20026;-84
2021/08/16 06:39:57;;;;;;;;;;;;;;;;;;4957821;28;20037;-88
2021/08/16 06:42:23;;;;;;;15.03;6.87;;;;;;;;;;4897249;28;19926;-92
2021/08/16 06:44:49;;;;;;;10.05;6.20;;;;;;;;;;4940370;29;20298;-91
2021/08/16 06:47:14;;;;;;;10.65;5.93;;;;;;;;;;4926918;29;20031;-91
2021/08/16 06:49:40;;;;;;;;;;;;;;;;;;4946145;29;20375;-90
2021/08/16 06:52:05;;;;;;;9.18;5.78;;;;;;;;;;4938284;29;20017;-87
2021/08/16 06:54:31;;;;;;;;;;;;;;;;;;4938758;29;20035;-88
2021/08/16 06:57:00;;;;;;;10.63;5.80;;;;;;;;;;4957335;28;19922;-90
2021/08/16 06:59:28;;;;;;;9.20;5.13;;;;;;;;;;4936908;29;20062;-91
2021/08/16 07:01:53;;;;;;;13.20;5.72;;;;;;;;;;4938116;29;20024;-89
2021/08/16 07:04:19;;;;;;;;;;;;;;;;;;4923080;29;20019;-89
2021/08/16 07:06:45;;;;;;;8.88;5.47;;;;;;;;;;4958159;28;19918;-90
2021/08/16 07:09:10;;;;;;;;;;;;;;;;;;4941670;28;20031;-90
2021/08/16 07:11:35;;;;;;;10.70;5.17;;;;;;;;;;4957152;28;19918;-85
2021/08/16 07:14:01;;;;;;;8.77;4.57;;;;;;;;;;4957102;28;20282;-87
2021/08/16 07:16:26;;;;;;;9.32;4.47;;;;;;;;;;4957265;28;20027;-89
2021/08/16 07:19:30;;;;;;;11.52;4.72;;;;;;;;;;4958387;28;20094;-93
2021/08/16 07:21:56;;;;;;;12.43;4.50;;;;;;;;;;4959910;28;20098;-89
2021/08/16 07:24:21;;;;;;;8.95;4.80;;;;;;;;;;4937580;29;20035;-89
2021/08/16 07:26:47;;;;;;;9.13;4.35;;;;;;;;;;4969387;28;20031;-87
2021/08/16 07:29:12;;;;;;;10.70;5.15;;;;;;;;;;4937508;29;20125;-86
2021/08/16 07:31:37;;;;;;;9.90;4.95;;;;;;;;;;4936913;29;20118;-85
2021/08/16 07:34:06;;;;;;;7.90;4.88;;;;;;;;;;4937619;29;20023;-89
2021/08/16 07:36:34;;;;;;;8.68;5.00;;;;;;;;;;4923254;29;20098;-87
2021/08/16 07:38:59;;;;;;;10.80;4.70;;;;;;;;;;4952834;29;20027;-88
2021/08/16 07:41:28;;;;;;;;;;;;;;;;;;4937626;29;20030;-91
2021/08/16 07:43:54;;;;;;;9.80;5.50;;;;;;;;;;4952930;29;20290;-91
2021/08/16 07:46:19;;;;;;;;;;;;;;;;;;4938064;29;20030;-91
2021/08/16 07:48:44;;;;;;;9.83;5.40;;;;;;;;;;4959188;28;20460;-89
2021/08/16 07:51:10;;;;;;;10.00;5.83;;;;;;;;;;4956664;28;20262;-90
2021/08/16 07:53:35;;;;;;;10.35;5.70;;;;;;;;;;4947691;28;20285;-89
2021/08/16 07:56:00;;;;;;;8.85;5.35;;;;;;;;;;4956738;28;20111;-88
2021/08/16 07:58:27;;;;;;;8.33;5.20;;;;;;;;;;4956385;28;20109;-88
2021/08/16 08:00:52;;;;;;;9.68;5.40;;;;;;;;;;4955991;28;20281;-90
2021/08/16 08:03:18;;;;;;;10.77;5.95;;;;;;;;;;4937237;28;20796;-91
2021/08/16 08:05:43;;;;;;;9.60;5.65;;;;;;;;;;4939650;28;20031;-85
2021/08/16 08:08:08;;;;;;;9.33;5.43;;;;;;;;;;4940497;28;20366;-90
2021/08/16 08:10:34;;;;;;;10.80;5.80;;;;;;;;;;4956301;28;20033;-85
2021/08/16 08:12:59;;;;;;;14.23;6.00;;;;;;;;;;4957359;28;20369;-87
2021/08/16 08:15:25;;;;;;;12.17;6.13;;;;;;;;;;4955986;28;20043;-89
2021/08/16 08:17:50;;;;;;;11.80;6.30;;;;;;;;;;4939450;28;20030;-91
2021/08/16 08:20:16;;;;;;;10.27;6.03;;;;;;;;;;4955980;28;20033;-91
2021/08/16 08:22:41;;;;;;;13.85;6.40;;;;;;;;;;4955417;28;20026;-91
2021/08/16 08:25:07;;;;;;;11.00;6.10;;;;;;;;;;4956815;28;20722;-91
2021/08/16 08:27:32;;;;;;;13.00;6.53;;;;;;;;;;4957464;28;20022;-91
2021/08/16 08:29:58;;;;;;;10.27;6.43;;;;;;;;;;4939647;28;20122;-88
2021/08/16 08:32:26;;;;;;;10.50;6.23;;;;;;;;;;4939336;28;20130;-93
2021/08/16 08:34:54;;;;;;;9.93;6.47;;;;;;;;;;4956568;28;20110;-93
2021/08/16 08:37:22;;;;;;;12.52;6.18;;;;;;;;;;4940993;28;20174;-94
2021/08/16 08:39:48;;;;;;;13.00;6.53;;;;;;;;;;4956546;28;20516;-94
2021/08/16 08:42:14;;;;;;;10.25;5.35;;;;;;;;;;4955906;28;20390;-88
2021/08/16 08:44:40;;;;;;;8.57;5.00;;;;;;;;;;4955302;28;20031;-90
2021/08/16 08:47:06;;;;;;;;;;;;;;;;;;4956535;28;20054;-93
2021/08/16 08:49:32;;;;;;;8.35;4.30;;;;;;;;;;4956456;28;19917;-91
2021/08/16 08:51:58;;;;;;;8.77;4.80;;;;;;;;;;4939317;28;20054;-93
2021/08/16 08:54:23;;;;;;;;;;;;;;;;;;4955884;28;20057;-90
2021/08/16 08:56:49;;;;;;;8.07;4.30;;;;;;;;;;4955854;28;19910;-92
2021/08/16 08:59:15;;;;;;;8.00;4.55;;;;;;;;;;4947963;28;20578;-92
2021/08/16 09:02:14;;;;;;;8.32;4.40;;;;;;;;;;4920318;29;20028;-91
2021/08/16 09:04:59;;;;;;;10.00;4.13;;;;;;;;;;4938310;28;20090;-92
2021/08/16 09:07:43;;;;;;;6.97;4.00;;;;;;;;;;4936815;29;20027;-88
2021/08/16 09:10:18;;;;;;;8.38;3.53;;;;;;;;;;4936982;28;20208;-91
2021/08/16 09:12:45;;;;;;;6.45;3.55;;;;;;;;;;4938948;28;20118;-89
2021/08/16 09:15:16;;;;;;;7.22;3.72;;;;;;;;;;4956729;28;20031;-87
2021/08/16 09:17:41;;;;;;;7.30;3.72;;;;;;;;;;4940408;29;20494;-88
2021/08/16 09:20:39;;;;;;;8.45;4.03;;;;;;;;;;4939818;29;20027;-89
2021/08/16 09:23:15;;;;;;;9.30;4.25;;;;;;;;;;4918081;29;20494;-88
2021/08/16 09:25:52;;;;;;;12.40;4.50;;;;;;;;;;4942787;29;20118;-92
2021/08/16 09:28:28;;;;;;;7.45;4.38;;;;;;;;;;4953026;28;20043;-88
2021/08/16 09:30:53;;;;;;;8.27;4.40;;;;;;;;;;4955742;28;20034;-85
2021/08/16 09:33:19;;;;;;;7.30;4.07;;;;;;;;;;4955380;28;20278;-88
2021/08/16 09:35:58;;;;;;;8.38;4.03;;;;;;;;;;4939546;29;20126;-93
2021/08/16 09:38:39;;;;;;;10.73;4.13;;;;;;;;;;4972300;28;20450;-92
2021/08/16 09:41:22;;;;;;;7.88;3.90;;;;;;;;;;4974254;28;20034;-93
2021/08/16 09:43:48;;;;;;;8.23;3.80;;;;;;;;;;4944311;28;20093;-93
2021/08/16 09:46:14;;;;;;;;;;;;;;;;;;4944338;28;20481;-93
2021/08/16 09:48:39;;;;;;;6.30;3.50;;;;;;;;;;4963887;28;19910;-91
2021/08/16 09:51:04;;;;;;;;;;;;;;;;;;4959277;28;20493;-88
2021/08/16 09:53:30;;;;;;;6.17;3.37;;;;;;;;;;4958507;28;20029;-91
2021/08/16 09:56:01;;;;;;;7.65;3.22;;;;;;;;;;4941958;28;20058;-90
2021/08/16 09:58:26;;;;;;;10.02;4.00;;;;;;;;;;4959915;28;20033;-91
2021/08/16 10:00:52;;;;;;;7.65;3.35;;;;;;;;;;4959093;28;20478;-89
2021/08/16 10:03:17;;;;;;;;;;;;;;;;;;4975890;28;20023;-88
2021/08/16 10:05:44;;;;;;;8.52;3.70;;;;;;;;;;4958068;28;19914;-87
2021/08/16 10:08:10;;;;;;;7.80;3.15;;;;;;;;;;4958107;28;20069;-87
2021/08/16 10:10:37;;;;;;;5.50;3.28;;;;;;;;;;4923872;29;20465;-88
2021/08/16 10:13:03;;;;;;;9.13;3.22;;;;;;;;;;4924201;29;20031;-91
2021/08/16 10:15:30;;;;;;;9.15;3.50;;;;;;;;;;4939191;29;20054;-90
2021/08/16 10:17:56;;;;;;;7.90;3.40;;;;;;;;;;4924369;29;20512;-92
2021/08/16 10:22:55;;;;;;;6.43;3.28;;;;;;;;;;4971073;28;19922;-63
2021/08/16 10:25:21;;;;;;;;;;;;;;;;;;4955690;28;20425;-61
2021/08/16 10:27:46;;;;;;;6.97;2.92;;;;;;;;;;4957648;28;19914;-60
2021/08/16 10:30:13;;;;;;;7.07;3.10;;;;;;;;;;4957406;28;20034;-60
2021/08/16 10:32:39;;;;;;;7.47;2.72;;;;;;;;;;4956860;28;20634;-61
2021/08/16 10:35:13;;;;;;;9.63;3.25;;;;;;;;;;4974388;28;20027;-61
2021/08/16 10:37:42;;;;;;;7.75;3.33;;;;;;;;;;4931576;29;20121;-61
2021/08/16 10:40:14;;;;;;;5.65;2.80;;;;;;;;;;4954698;29;20029;-63
2021/08/16 10:42:40;;;;;;;8.52;3.03;;;;;;;;;;4937491;29;20027;-62
2021/08/16 10:45:07;;;;;;;5.80;2.80;;;;;;;;;;4954685;29;20028;-64
2021/08/16 10:47:34;;;;;;;6.82;2.95;;;;;;;;;;4937455;29;20274;-59
2021/08/16 10:50:32;;;;;;;6.88;2.95;;;;;;;;;;4954595;29;20039;-58
2021/08/16 10:53:08;;;;;;;6.53;2.80;;;;;;;;;;4940568;28;20447;-62
2021/08/16 10:55:40;;;;;;;5.35;2.78;;;;;;;;;;4920945;29;20031;-63
2021/08/16 10:58:10;;;;;;;5.85;2.70;;;;;;;;;;4954028;29;20027;-59
2021/08/16 11:00:40;;;;;;;5.28;2.90;;;;;;;;;;4936679;29;20074;-57
2021/08/16 11:03:07;;;;;;;7.28;2.80;;;;;;;;;;4936047;29;20038;-64
2021/08/16 11:05:34;;;;;;;4.28;2.45;;;;;;;;;;4921044;29;20078;-59
2021/08/16 11:08:03;;;;;;;6.60;2.95;;;;;;;;;;4931618;28;20491;-61
2021/08/16 11:10:45;;;;;;;5.75;2.63;;;;;;;;;;4943900;29;20035;-60
2021/08/16 11:13:21;;;;;;;6.07;2.60;;;;;;;;;;4935974;29;20033;-59
2021/08/16 11:15:47;;;;;;;5.90;2.80;;;;;;;;;;4936606;29;20028;-63
2021/08/16 11:18:17;;;;;;;7.03;2.60;;;;;;;;;;4936364;29;20034;-62
2021/08/16 11:20:43;;;;;;;4.60;2.20;;;;;;;;;;4953931;28;20023;-62
2021/08/16 11:23:08;;;;;;;9.35;2.75;;;;;;;;;;4954970;28;20569;-63
2021/08/16 11:25:33;;;;;;;8.10;2.80;;;;;;;;;;4973258;28;20030;-63
2021/08/16 11:28:02;;;;;;;5.82;2.50;;;;;;;;;;4971771;28;20109;-65
2021/08/16 11:30:29;;;;;;;6.70;2.67;;;;;;;;;;4959812;28;20042;-62
2021/08/16 11:32:55;;;;;;;6.32;2.67;;;;;;;;;;4950971;29;20027;-57
2021/08/16 11:35:20;;;;;;;7.77;3.43;;;;;;;;;;4958224;28;20106;-57
2021/08/16 11:37:48;;;;;;;5.80;2.67;;;;;;;;;;4954714;28;20113;-58
2021/08/16 11:40:14;;;;;;;11.60;3.22;;;;;;;;;;4972333;28;20019;-60
2021/08/16 11:42:40;;;;;;;10.20;3.10;;;;;;;;;;4954069;28;20093;-56
2021/08/16 11:45:06;;;;;;;7.00;2.85;;;;;;;;;;4972331;28;20484;-58
2021/08/16 11:47:31;;;;;;;6.40;2.97;;;;;;;;;;4971906;28;20027;-59
2021/08/16 11:50:00;;;;;;;5.50;2.73;;;;;;;;;;4971111;28;20030;-63
2021/08/16 11:52:25;;;;;;;8.35;2.78;;;;;;;;;;4965385;28;20023;-58
2021/08/16 11:54:51;;;;;;;15.87;3.00;;;;;;;;;;4951624;28;20035;-59
2021/08/16 11:57:16;;;;;;;9.07;2.87;;;;;;;;;;4960993;28;20523;-58
2021/08/16 11:59:42;;;;;;;5.63;3.00;;;;;;;;;;4966190;28;20445;-59
2021/08/16 12:02:07;;;;;;;5.47;2.55;;;;;;;;;;4961423;28;20455;-59
2021/08/16 12:04:37;;;;;;;7.30;2.78;;;;;;;;;;4958423;28;20045;-60
2021/08/16 12:07:02;;;;;;;6.75;2.92;;;;;;;;;;4970837;28;20063;-58
2021/08/16 12:09:32;;;;;;;7.05;2.67;;;;;;;;;;4955089;28;20124;-58
2021/08/16 12:11:58;;;;;;;7.30;2.97;;;;;;;;;;4958883;28;20023;-62
2021/08/16 12:14:30;;;;;;;6.43;3.28;;;;;;;;;;4958719;28;20025;-58
2021/08/16 12:16:55;;;;;;;14.63;3.55;;;;;;;;;;4970541;28;20125;-59
2021/08/16 12:19:21;;;;;;;10.02;3.28;;;;;;;;;;4970863;28;20062;-61
2021/08/16 12:21:46;;;;;;;7.27;3.10;;;;;;;;;;4957290;28;20522;-61
2021/08/16 12:24:11;;;;;;;5.93;3.10;;;;;;;;;;4953531;28;20081;-64
2021/08/16 12:26:38;;;;;;;6.83;3.00;;;;;;;;;;4956039;28;20023;-63
2021/08/16 12:29:18;;;;;;;8.90;2.75;;;;;;;;;;4950974;29;20635;-58
2021/08/16 12:31:44;;;;;;;6.47;2.97;;;;;;;;;;4955697;28;20435;-57
2021/08/16 12:34:11;;;;;;;6.43;2.73;;;;;;;;;;4952671;29;20106;-58
2021/08/16 12:36:37;;;;;;;12.70;3.05;;;;;;;;;;4966651;28;20027;-56
2021/08/16 12:39:03;;;;;;;;;;;;;;;;;;4967685;28;20023;-56
2021/08/16 12:41:29;;;;;;;7.13;2.67;;;;;;;;;;4951851;28;19967;-63
2021/08/16 12:43:55;;;;;;;6.63;2.70;;;;;;;;;;4951112;29;20038;-64
2021/08/16 12:46:31;;;;;;;8.30;3.00;;;;;;;;;;4951418;29;20023;-62
2021/08/16 12:48:57;;;;;;;8.07;2.72;;;;;;;;;;4965984;28;20062;-62
2021/08/16 12:51:22;;;;;;;6.87;2.73;;;;;;;;;;4966579;28;20078;-62
2021/08/16 12:53:47;;;;;;;4.40;2.45;;;;;;;;;;4969997;28;20022;-63
2021/08/16 12:56:13;;;;;;;9.13;2.80;;;;;;;;;;4971154;28;20455;-62
2021/08/16 12:58:38;;;;;;;7.20;2.70;;;;;;;;;;4971441;28;20056;-64
2021/08/16 13:01:04;;;;;;;11.13;2.60;;;;;;;;;;4954695;28;20027;-65
2021/08/16 13:03:29;;;;;;;6.70;2.60;;;;;;;;;;4951017;29;20484;-63
2021/08/16 13:05:54;;;;;;;6.10;2.57;;;;;;;;;;4952121;29;20030;-64
2021/08/16 13:08:20;;;;;;;7.07;2.80;;;;;;;;;;4959603;28;20160;-57
2021/08/16 13:20:58;;;;;;;6.57;2.40;;;;;;;;;;4931475;29;20044;-86
2021/08/16 13:23:24;;;;;;;6.73;2.50;;;;;;;;;;4933209;29;20043;-85
2021/08/16 13:25:49;;;;;;;9.33;2.70;;;;;;;;;;4901227;29;20027;-84
2021/08/16 13:28:14;;;;;;;6.17;2.13;;;;;;;;;;4917059;29;20030;-85
2021/08/16 13:30:40;;;;;;;5.87;2.63;;;;;;;;;;4916901;29;20118;-85
2021/08/16 13:33:05;;;;;;;9.33;2.50;;;;;;;;;;4917343;29;20027;-84
2021/08/16 13:35:38;;;;;;;6.97;2.73;;;;;;;;;;4917596;29;20020;-84
2021/08/16 13:38:03;;;;;;;6.28;2.30;;;;;;;;;;4918073;29;20063;-85
2021/08/16 13:40:29;;;;;;;5.23;2.00;;;;;;;;;;4917329;29;20086;-84
2021/08/16 13:42:54;;;;;;;5.43;2.37;;;;;;;;;;4917087;29;20040;-84
2021/08/16 13:45:19;;;;;;;7.13;2.60;;;;;;;;;;4929333;29;20451;-83
2021/08/16 13:47:45;;;;;;;7.20;2.50;;;;;;;;;;4897993;29;20118;-86
2021/08/16 13:50:10;;;;;;;8.03;3.00;;;;;;;;;;4898076;29;20546;-84
2021/08/16 13:52:36;;;;;;;6.30;2.40;;;;;;;;;;4898171;29;20798;-83
2021/08/16 13:55:01;;;;;;;8.45;2.72;;;;;;;;;;4898115;29;20046;-84
2021/08/16 13:57:26;;;;;;;5.13;2.33;;;;;;;;;;4897952;29;20570;-85
2021/08/16 13:59:52;;;;;;;7.83;2.67;;;;;;;;;;4901622;29;20379;-84
2021/08/16 14:02:17;;;;;;;7.00;2.57;;;;;;;;;;4919214;29;20024;-85
2021/08/16 14:04:43;;;;;;;5.47;2.47;;;;;;;;;;4920125;29;20453;-85
2021/08/16 14:07:09;;;;;;;6.00;2.40;;;;;;;;;;4920306;29;20028;-84
2021/08/16 14:09:34;;;;;;;10.07;2.40;;;;;;;;;;4920157;29;20028;-83
2021/08/16 14:12:01;;;;;;;10.33;2.63;;;;;;;;;;4904193;29;20027;-85
2021/08/16 14:14:26;;;;;;;6.05;2.30;;;;;;;;;;4901317;29;20036;-85
2021/08/16 14:16:51;;;;;;;5.70;2.30;;;;;;;;;;4901318;29;20111;-85
2021/08/16 14:19:17;;;;;;;6.93;2.50;;;;;;;;;;4885199;29;20505;-83
2021/08/16 14:21:42;;;;;;;5.57;2.40;;;;;;;;;;4888530;29;20160;-83
2021/08/16 14:24:08;;;;;;;7.87;2.30;;;;;;;;;;4885938;29;20032;-84
2021/08/16 14:26:36;;;;;;;4.88;2.30;;;;;;;;;;4900855;29;20039;-86
2021/08/16 14:29:02;;;;;;;5.85;2.20;;;;;;;;;;4887615;29;20039;-84
2021/08/16 14:31:30;;;;;;;6.13;2.20;;;;;;;;;;4902132;29;20024;-85
2021/08/16 14:33:56;;;;;;;6.35;2.30;;;;;;;;;;4902739;29;20024;-84
2021/08/16 14:36:21;;;;;;;6.17;2.20;;;;;;;;;;4901998;29;20032;-84
2021/08/16 14:38:47;;;;;;;4.83;2.20;;;;;;;;;;4886327;29;20126;-84
2021/08/16 14:41:12;;;;;;;8.57;2.57;;;;;;;;;;4907807;29;20024;-84
2021/08/16 14:43:38;;;;;;;6.55;2.17;;;;;;;;;;4904019;29;20322;-84
2021/08/16 14:46:03;;;;;;;8.03;2.27;;;;;;;;;;4904802;29;20024;-84
2021/08/16 14:48:29;;;;;;;6.03;2.37;;;;;;;;;;4904873;29;20118;-84
2021/08/16 14:50:55;;;;;;;5.70;2.47;;;;;;;;;;4914359;29;20494;-85